Time;durP1;ratioP1;P1;durP2;ratioP2;P2;SDS_P1;SDS_P2;PMS_P1;PMS_P2;Temp;Humidity;BMP_temperature;BMP_pressure;BME280_temperature;BME280_humidity;BME280_pressure;Samples;Min_cycle;Max_cycle;Signal;HPM_P1;HPM_P2
2023/12/09 00:01:43;;;;;;;28.63;9.13;;;;;;;5.97;100.00;100913.38;5058917;28;20031;-72
2023/12/09 00:04:08;;;;;;;34.13;9.77;;;;;;;5.95;100.00;100911.66;5059298;28;20029;-72
2023/12/09 00:06:34;;;;;;;26.60;9.45;;;;;;;5.97;100.00;100910.72;5063597;28;20497;-73
2023/12/09 00:08:59;;;;;;;29.52;9.50;;;;;;;5.95;100.00;100905.47;5056612;28;20041;-72
2023/12/09 00:11:25;;;;;;;29.77;8.85;;;;;;;5.92;100.00;100895.81;5060611;28;20095;-72
2023/12/09 00:13:51;;;;;;;30.20;10.27;;;;;;;5.92;100.00;100897.63;5063971;28;20025;-72
2023/12/09 00:16:18;;;;;;;29.15;9.25;;;;;;;5.92;100.00;100900.28;5053861;28;20539;-72
2023/12/09 00:18:44;;;;;;;33.38;9.70;;;;;;;5.91;100.00;100910.06;5062538;28;20064;-72
2023/12/09 00:21:09;;;;;;;27.30;9.30;;;;;;;5.90;100.00;100907.50;5062015;28;20029;-72
2023/12/09 00:23:34;;;;;;;32.53;9.07;;;;;;;5.88;100.00;100904.91;5063882;28;20032;-72
2023/12/09 00:26:00;;;;;;;34.38;9.80;;;;;;;5.87;100.00;100903.22;5058831;28;20551;-73
2023/12/09 00:28:26;;;;;;;29.80;9.68;;;;;;;5.90;100.00;100903.03;5057831;28;20043;-72
2023/12/09 00:30:51;;;;;;;24.45;8.13;;;;;;;5.89;100.00;100911.97;5060917;28;20021;-72
2023/12/09 00:33:16;;;;;;;30.02;9.50;;;;;;;5.90;100.00;100905.72;5067814;28;20017;-72
2023/12/09 00:35:42;;;;;;;29.17;9.82;;;;;;;5.92;100.00;100909.16;5068270;28;20033;-72
2023/12/09 00:38:07;;;;;;;28.00;9.65;;;;;;;5.93;100.00;100902.88;5068043;28;20115;-72
2023/12/09 00:40:32;;;;;;;30.92;10.15;;;;;;;5.93;100.00;100894.88;5060472;28;20342;-73
2023/12/09 00:42:57;;;;;;;40.40;11.35;;;;;;;5.95;100.00;100895.63;5062201;28;20048;-71
2023/12/09 00:45:24;;;;;;;27.58;9.70;;;;;;;5.96;100.00;100907.19;5058680;28;20024;-71
2023/12/09 00:47:50;;;;;;;32.00;11.35;;;;;;;5.97;100.00;100910.72;5063471;28;20114;-71
2023/12/09 00:50:15;;;;;;;28.05;9.38;;;;;;;5.94;100.00;100904.63;5063426;28;20045;-72
2023/12/09 00:52:40;;;;;;;30.55;9.18;;;;;;;5.93;100.00;100908.22;5070791;28;20024;-71
2023/12/09 00:55:06;;;;;;;30.08;9.13;;;;;;;5.92;100.00;100903.81;5064461;28;20322;-72
2023/12/09 00:57:31;;;;;;;32.20;8.93;;;;;;;5.90;100.00;100881.72;5062061;28;20414;-72
2023/12/09 00:59:57;;;;;;;26.80;8.88;;;;;;;5.88;100.00;100886.25;5068382;28;20052;-72
2023/12/09 01:02:22;;;;;;;23.33;8.65;;;;;;;5.86;100.00;100893.47;5068030;28;20530;-73
2023/12/09 01:04:47;;;;;;;25.08;10.23;;;;;;;5.82;100.00;100897.25;5060936;28;20036;-73
2023/12/09 01:07:13;;;;;;;29.73;10.40;;;;;;;5.80;100.00;100896.47;5071847;28;20123;-72
2023/12/09 01:09:38;;;;;;;27.48;9.30;;;;;;;5.78;100.00;100901.00;5068430;28;20028;-72
2023/12/09 01:12:04;;;;;;;29.92;9.48;;;;;;;5.75;100.00;100894.06;5070586;28;20503;-73
2023/12/09 01:14:29;;;;;;;28.90;9.68;;;;;;;5.75;100.00;100887.84;5069263;28;20262;-72
2023/12/09 01:16:54;;;;;;;28.30;9.40;;;;;;;5.73;100.00;100885.25;5063562;28;20032;-72
2023/12/09 01:19:20;;;;;;;26.27;10.00;;;;;;;5.74;100.00;100886.09;5066286;28;20046;-73
2023/12/09 01:21:46;;;;;;;28.25;8.95;;;;;;;5.72;100.00;100880.84;5070078;28;20032;-72
2023/12/09 01:24:11;;;;;;;28.35;9.82;;;;;;;5.72;100.00;100882.66;5062235;28;20276;-72
2023/12/09 01:26:36;;;;;;;27.83;9.50;;;;;;;5.70;100.00;100880.09;5069616;28;20036;-72
2023/12/09 01:29:03;;;;;;;29.65;9.45;;;;;;;5.68;100.00;100881.97;5069498;28;20096;-72
2023/12/09 01:31:28;;;;;;;31.15;9.10;;;;;;;5.68;100.00;100875.75;5070609;28;20024;-72
2023/12/09 01:33:53;;;;;;;27.83;8.95;;;;;;;5.66;100.00;100883.84;5063278;28;20032;-72
2023/12/09 01:36:19;;;;;;;25.63;8.82;;;;;;;5.68;100.00;100886.44;5058697;28;20044;-72
2023/12/09 01:38:44;;;;;;;26.38;9.30;;;;;;;5.67;100.00;100890.91;5068921;28;20033;-73
2023/12/09 01:41:09;;;;;;;29.05;10.02;;;;;;;5.66;100.00;100883.00;5063860;28;20040;-73
2023/12/09 01:43:35;;;;;;;35.22;9.60;;;;;;;5.65;100.00;100884.81;5064345;28;20081;-72
2023/12/09 01:46:06;;;;;;;26.33;9.23;;;;;;;5.63;100.00;100880.50;5059670;28;20029;-72
2023/12/09 01:48:33;;;;;;;26.88;8.93;;;;;;;5.59;100.00;100875.31;5073261;28;20043;-73
2023/12/09 01:51:00;;;;;;;28.33;9.35;;;;;;;5.58;100.00;100862.06;5069091;28;20052;-72
2023/12/09 01:53:25;;;;;;;28.55;9.18;;;;;;;5.57;100.00;100852.34;5055426;28;20029;-72
2023/12/09 01:55:51;;;;;;;39.17;11.20;;;;;;;5.56;100.00;100843.50;5073703;28;20246;-73
2023/12/09 01:58:17;;;;;;;30.10;10.10;;;;;;;5.56;100.00;100848.81;5074565;28;20021;-72
2023/12/09 02:00:43;;;;;;;27.00;9.90;;;;;;;5.55;100.00;100844.44;5074122;28;20025;-72
2023/12/09 02:03:08;;;;;;;30.55;9.23;;;;;;;5.54;100.00;100853.34;5072207;28;20032;-74
2023/12/09 02:05:33;;;;;;;32.80;9.57;;;;;;;5.53;100.00;100854.28;5051581;28;20116;-74
2023/12/09 02:07:59;;;;;;;31.50;9.10;;;;;;;5.53;100.00;100856.97;5044391;28;20068;-75
2023/12/09 02:10:24;;;;;;;30.30;10.02;;;;;;;5.51;100.00;100861.53;5043315;28;20071;-74
2023/12/09 02:13:05;;;;;;;28.40;9.82;;;;;;;5.52;100.00;100860.59;5050376;28;20108;-75
2023/12/09 02:15:38;;;;;;;24.05;8.95;;;;;;;5.51;100.00;100852.66;5049801;28;20527;-74
2023/12/09 02:18:05;;;;;;;27.35;8.95;;;;;;;5.48;100.00;100856.34;5049434;28;20029;-74
2023/12/09 02:20:31;;;;;;;34.25;9.73;;;;;;;5.49;100.00;100855.41;5048982;28;20033;-74
2023/12/09 02:23:07;;;;;;;27.27;8.10;;;;;;;5.48;100.00;100855.50;5047552;28;20543;-75
2023/12/09 02:25:34;;;;;;;32.58;9.80;;;;;;;5.47;100.00;100853.75;5054725;28;20047;-75
2023/12/09 02:28:05;;;;;;;31.05;10.30;;;;;;;5.46;100.00;100838.69;5056817;28;20028;-75
2023/12/09 02:30:52;;;;;;;30.85;9.70;;;;;;;5.45;100.00;100837.84;5056236;28;20048;-75
2023/12/09 02:33:20;;;;;;;28.10;10.20;;;;;;;5.44;100.00;100836.13;5043319;28;20028;-74
2023/12/09 02:35:49;;;;;;;26.77;10.10;;;;;;;5.43;100.00;100835.28;5045563;28;20029;-74
2023/12/09 02:38:16;;;;;;;27.85;9.40;;;;;;;5.42;100.00;100827.34;5056080;28;20074;-75
2023/12/09 02:40:42;;;;;;;26.73;8.98;;;;;;;5.40;100.00;100815.91;5052191;28;20032;-74
2023/12/09 02:43:08;;;;;;;29.45;9.50;;;;;;;5.39;100.00;100812.38;5050581;28;20649;-75
2023/12/09 02:45:33;;;;;;;28.15;9.32;;;;;;;5.39;100.00;100822.19;5052213;28;20441;-74
2023/12/09 02:47:59;;;;;;;25.67;8.98;;;;;;;5.38;100.00;100820.44;5054441;28;20029;-75
2023/12/09 02:50:24;;;;;;;26.92;9.57;;;;;;;5.37;100.00;100816.06;5049022;28;20139;-73
2023/12/09 02:52:49;;;;;;;31.02;9.75;;;;;;;5.37;100.00;100816.06;5043306;28;20025;-74
2023/12/09 02:55:15;;;;;;;34.97;9.68;;;;;;;5.35;100.00;100816.13;5051881;28;20028;-75
2023/12/09 02:57:41;;;;;;;30.67;8.73;;;;;;;5.34;100.00;100805.56;5050056;28;20016;-74
2023/12/09 03:00:06;;;;;;;24.73;8.82;;;;;;;5.31;100.00;100821.72;5045331;28;20026;-74
2023/12/09 03:02:32;;;;;;;30.95;9.82;;;;;;;5.30;100.00;100796.00;5046668;28;20314;-74
2023/12/09 03:04:58;;;;;;;28.33;8.95;;;;;;;5.28;100.00;100809.41;5054503;28;20025;-74
2023/12/09 03:07:23;;;;;;;28.15;9.65;;;;;;;5.29;100.00;100789.81;5055452;28;20025;-75
2023/12/09 03:09:49;;;;;;;31.75;9.10;;;;;;;5.29;100.00;100808.47;5052937;28;20112;-73
2023/12/09 03:12:14;;;;;;;29.60;8.98;;;;;;;5.30;100.00;100788.00;5049504;28;20025;-75
2023/12/09 03:14:40;;;;;;;32.70;9.02;;;;;;;5.30;100.00;100809.31;5055946;28;20028;-75
2023/12/09 03:17:05;;;;;;;29.92;9.60;;;;;;;5.28;100.00;100789.91;5051686;28;20031;-75
2023/12/09 03:19:31;;;;;;;27.83;8.98;;;;;;;5.27;100.00;100809.47;5052260;28;20028;-75
2023/12/09 03:21:57;;;;;;;25.90;8.90;;;;;;;5.25;100.00;100799.75;5040344;28;20029;-75
2023/12/09 03:24:22;;;;;;;24.88;8.73;;;;;;;5.23;100.00;100801.66;5056128;28;20021;-71
2023/12/09 03:26:51;;;;;;;28.42;9.85;;;;;;;5.24;100.00;100784.72;5066301;28;20072;-71
2023/12/09 03:29:17;;;;;;;25.50;8.65;;;;;;;5.23;100.00;100801.66;5059691;28;20040;-71
2023/12/09 03:31:42;;;;;;;23.63;7.55;;;;;;;5.22;100.00;100783.09;5065823;28;20031;-73
2023/12/09 03:34:07;;;;;;;26.33;8.32;;;;;;;5.22;100.00;100796.41;5059940;28;20120;-71
2023/12/09 03:36:33;;;;;;;31.67;9.98;;;;;;;5.21;100.00;100782.22;5054875;28;20029;-72
2023/12/09 03:38:58;;;;;;;25.70;8.77;;;;;;;5.21;100.00;100779.56;5055550;28;20041;-73
2023/12/09 03:41:24;;;;;;;28.83;8.27;;;;;;;5.23;100.00;100785.66;5059334;28;20512;-70
2023/12/09 03:43:49;;;;;;;27.17;8.57;;;;;;;5.25;100.00;100783.75;5058863;28;20035;-72
2023/12/09 03:46:14;;;;;;;26.90;8.68;;;;;;;5.25;100.00;100780.25;5059967;28;20033;-71
2023/12/09 03:48:39;;;;;;;25.15;7.55;;;;;;;5.26;100.00;100768.66;5059055;28;20056;-71
2023/12/09 03:51:05;;;;;;;30.33;8.48;;;;;;;5.27;100.00;100764.19;5060745;28;20036;-71
2023/12/09 03:53:30;;;;;;;28.90;8.15;;;;;;;5.24;100.00;100768.75;5058369;28;20033;-71
2023/12/09 03:55:56;;;;;;;24.95;7.10;;;;;;;5.24;100.00;100760.75;5057194;28;20036;-72
2023/12/09 03:58:22;;;;;;;25.33;7.43;;;;;;;5.24;100.00;100747.44;5062749;28;20048;-71
2023/12/09 04:00:48;;;;;;;28.75;8.57;;;;;;;5.24;100.00;100754.53;5061644;28;20025;-70
2023/12/09 04:03:14;;;;;;;26.83;8.00;;;;;;;5.22;100.00;100737.78;5062066;28;20036;-71
2023/12/09 04:05:41;;;;;;;25.50;7.35;;;;;;;5.21;100.00;100744.94;5057167;28;20018;-71
2023/12/09 04:08:06;;;;;;;31.27;8.20;;;;;;;5.22;100.00;100756.44;5055752;28;20033;-71
2023/12/09 04:10:32;;;;;;;27.10;7.97;;;;;;;5.21;100.00;100744.94;5067665;28;20096;-71
2023/12/09 04:12:57;;;;;;;32.45;8.55;;;;;;;5.23;100.00;100753.69;5061631;28;20032;-73
2023/12/09 04:15:22;;;;;;;26.88;7.60;;;;;;;5.24;100.00;100755.41;5063335;28;20460;-72
2023/12/09 04:17:48;;;;;;;27.67;8.18;;;;;;;5.25;100.00;100756.28;5061386;28;20029;-70
2023/12/09 04:20:13;;;;;;;27.45;8.00;;;;;;;5.25;100.00;100757.13;5065698;28;20040;-72
2023/12/09 04:22:39;;;;;;;26.25;7.78;;;;;;;5.24;100.00;100750.09;5062716;28;20008;-71
2023/12/09 04:25:06;;;;;;;21.48;7.53;;;;;;;5.24;100.00;100750.09;5061555;28;20025;-71
2023/12/09 04:27:34;;;;;;;36.72;7.47;;;;;;;5.25;100.00;100748.28;5058476;28;20041;-71
2023/12/09 04:30:01;;;;;;;28.10;8.30;;;;;;;5.25;100.00;100719.81;5065478;28;20094;-71
2023/12/09 04:32:31;;;;;;;26.35;8.23;;;;;;;5.27;100.00;100730.44;5066499;28;20044;-71
2023/12/09 04:34:57;;;;;;;26.67;7.18;;;;;;;5.27;100.00;100729.53;5057324;28;20553;-75
2023/12/09 04:37:22;;;;;;;27.90;6.47;;;;;;;5.25;100.00;100727.81;5059102;28;20024;-74
2023/12/09 04:39:48;;;;;;;29.23;7.45;;;;;;;5.25;100.00;100714.50;5056979;28;20481;-74
2023/12/09 04:42:13;;;;;;;25.67;8.00;;;;;;;5.26;100.00;100720.69;5052281;28;20037;-74
2023/12/09 04:44:39;;;;;;;24.95;7.53;;;;;;;5.27;100.00;100716.22;5049624;28;20014;-75
2023/12/09 04:47:04;;;;;;;23.05;6.80;;;;;;;5.27;100.00;100713.56;5055599;28;20060;-74
2023/12/09 04:49:29;;;;;;;25.27;7.30;;;;;;;5.28;100.00;100713.47;5053211;28;20510;-75
2023/12/09 04:51:55;;;;;;;24.90;6.93;;;;;;;5.28;100.00;100702.81;5057078;28;20037;-74
2023/12/09 04:54:20;;;;;;;26.52;7.53;;;;;;;5.30;100.00;100705.41;5053599;28;20458;-74
2023/12/09 04:56:45;;;;;;;22.45;6.47;;;;;;;5.30;100.00;100695.63;5049905;28;20036;-75
2023/12/09 04:59:11;;;;;;;21.80;7.10;;;;;;;5.30;100.00;100695.63;5055358;28;20025;-74
2023/12/09 05:01:36;;;;;;;21.52;6.65;;;;;;;5.30;100.00;100692.06;5049071;28;20396;-75
2023/12/09 05:04:01;;;;;;;30.83;7.75;;;;;;;5.31;100.00;100685.81;5043683;28;20346;-75
2023/12/09 05:06:27;;;;;;;28.45;6.88;;;;;;;5.33;100.00;100690.13;5059673;28;20562;-76
2023/12/09 05:08:52;;;;;;;19.88;6.47;;;;;;;5.34;100.00;100682.97;5049583;28;20036;-74
2023/12/09 05:11:18;;;;;;;30.33;6.57;;;;;;;5.34;100.00;100680.31;5058707;28;20044;-74
2023/12/09 05:13:44;;;;;;;24.92;6.97;;;;;;;5.34;100.00;100683.81;5055570;28;20031;-74
2023/12/09 05:16:12;;;;;;;27.90;7.68;;;;;;;5.35;100.00;100684.69;5055288;28;20329;-75
2023/12/09 05:18:37;;;;;;;26.05;8.27;;;;;;;5.35;100.00;100679.38;5048765;28;20036;-75
2023/12/09 05:21:06;;;;;;;19.73;5.68;;;;;;;5.35;100.00;100688.22;5049535;28;20071;-74
2023/12/09 05:23:31;;;;;;;27.95;6.90;;;;;;;5.34;100.00;100688.31;5048551;28;20454;-74
2023/12/09 05:25:56;;;;;;;33.78;7.28;;;;;;;5.33;100.00;100682.13;5048620;28;20116;-74
2023/12/09 05:28:22;;;;;;;20.67;5.40;;;;;;;5.35;100.00;100684.69;5056381;28;20029;-75
2023/12/09 05:30:48;;;;;;;24.30;6.20;;;;;;;5.33;100.00;100675.91;5043912;28;20029;-74
2023/12/09 05:33:13;;;;;;;31.92;6.47;;;;;;;5.30;100.00;100674.31;5048449;28;20108;-75
2023/12/09 05:35:38;;;;;;;23.45;6.28;;;;;;;5.29;100.00;100671.72;5053183;28;20521;-75
2023/12/09 05:38:04;;;;;;;31.90;7.53;;;;;;;5.29;100.00;100682.38;5041176;28;20106;-75
2023/12/09 05:40:29;;;;;;;24.42;6.22;;;;;;;5.29;100.00;100677.03;5057205;28;20042;-75
2023/12/09 05:42:54;;;;;;;26.42;6.18;;;;;;;5.31;100.00;100673.34;5052523;28;20028;-74
2023/12/09 05:45:20;;;;;;;23.63;6.22;;;;;;;5.31;100.00;100669.81;5059416;28;20074;-72
2023/12/09 05:47:46;;;;;;;17.98;5.88;;;;;;;5.29;100.00;100663.72;5061318;28;20380;-72
2023/12/09 05:50:11;;;;;;;25.15;6.72;;;;;;;5.30;100.00;100658.31;5057017;28;20068;-72
2023/12/09 05:52:36;;;;;;;17.77;5.35;;;;;;;5.33;100.00;100654.59;5060844;28;20052;-72
2023/12/09 05:55:02;;;;;;;19.90;5.78;;;;;;;5.33;100.00;100659.91;5056517;28;20430;-72
2023/12/09 05:57:27;;;;;;;20.65;5.57;;;;;;;5.34;100.00;100656.31;5061128;28;20034;-72
2023/12/09 05:59:52;;;;;;;21.58;5.70;;;;;;;5.33;100.00;100654.59;5060420;28;20036;-73
2023/12/09 06:02:18;;;;;;;20.95;5.70;;;;;;;5.33;100.00;100657.25;5062799;28;20031;-72
2023/12/09 06:04:43;;;;;;;24.63;6.43;;;;;;;5.32;100.00;100650.22;5064169;28;20111;-72
2023/12/09 06:07:08;;;;;;;24.42;6.35;;;;;;;5.32;100.00;100658.22;5055002;28;20029;-73
2023/12/09 06:09:34;;;;;;;30.95;6.70;;;;;;;5.32;100.00;100642.25;5068203;28;20041;-72
2023/12/09 06:11:59;;;;;;;24.02;6.15;;;;;;;5.31;100.00;100648.50;5055893;28;20477;-72
2023/12/09 06:14:24;;;;;;;23.85;6.22;;;;;;;5.31;100.00;100637.84;5060560;28;20021;-73
2023/12/09 06:16:50;;;;;;;23.35;6.25;;;;;;;5.32;100.00;100631.56;5055409;28;20021;-72
2023/12/09 06:19:15;;;;;;;23.77;5.78;;;;;;;5.29;100.00;100616.63;5047073;28;20191;-72
2023/12/09 06:21:40;;;;;;;20.73;5.28;;;;;;;5.28;100.00;100622.88;5052313;28;20028;-72
2023/12/09 06:24:05;;;;;;;23.17;5.78;;;;;;;5.26;100.00;100619.44;5054848;28;20036;-72
2023/12/09 06:26:31;;;;;;;20.23;5.25;;;;;;;5.27;100.00;100621.19;5061199;28;20070;-72
2023/12/09 06:28:56;;;;;;;21.38;5.72;;;;;;;5.26;100.00;100614.13;5057656;28;20123;-73
2023/12/09 06:31:21;;;;;;;29.30;6.72;;;;;;;5.27;100.00;100615.84;5055613;28;20037;-73
2023/12/09 06:33:46;;;;;;;21.67;5.47;;;;;;;5.27;100.00;100606.97;5056017;28;20078;-72
2023/12/09 06:36:12;;;;;;;20.55;5.35;;;;;;;5.25;100.00;100602.56;5051520;28;20036;-73
2023/12/09 06:38:40;;;;;;;22.60;5.28;;;;;;;5.26;100.00;100595.47;5053079;28;20112;-72
2023/12/09 06:41:06;;;;;;;21.60;5.53;;;;;;;5.26;100.00;100595.47;5059138;28;20067;-72
2023/12/09 06:43:32;;;;;;;20.27;6.32;;;;;;;5.27;100.00;100596.31;5065993;28;20036;-72
2023/12/09 06:45:59;;;;;;;20.83;5.43;;;;;;;5.25;100.00;100585.75;5066777;28;20017;-72
2023/12/09 06:48:25;;;;;;;23.13;5.03;;;;;;;5.26;100.00;100582.13;5058745;28;20047;-72
2023/12/09 06:50:50;;;;;;;20.67;5.35;;;;;;;5.25;100.00;100573.28;5067710;28;20098;-72
2023/12/09 06:53:15;;;;;;;23.52;5.25;;;;;;;5.25;100.00;100575.09;5050918;28;20111;-72
2023/12/09 06:55:41;;;;;;;27.02;6.32;;;;;;;5.25;100.00;100559.94;5057764;28;20041;-72
2023/12/09 06:58:06;;;;;;;22.70;6.15;;;;;;;5.25;100.00;100551.94;5051920;28;20037;-73
2023/12/09 07:00:31;;;;;;;18.98;5.28;;;;;;;5.27;100.00;100527.03;5055166;28;20025;-72
2023/12/09 07:02:56;;;;;;;18.40;5.97;;;;;;;5.25;100.00;100522.66;5059337;28;20029;-72
2023/12/09 07:05:22;;;;;;;20.85;5.45;;;;;;;5.28;100.00;100523.44;5058363;28;20103;-73
2023/12/09 07:07:50;;;;;;;22.20;4.65;;;;;;;5.29;100.00;100523.34;5045197;28;20040;-73
2023/12/09 07:10:16;;;;;;;19.45;5.18;;;;;;;5.29;100.00;100514.50;5053208;28;20109;-73
2023/12/09 07:12:42;;;;;;;23.80;5.72;;;;;;;5.30;100.00;100502.88;5054456;28;20057;-73
2023/12/09 07:15:08;;;;;;;17.80;5.28;;;;;;;5.32;100.00;100501.00;5058395;28;20028;-72
2023/12/09 07:17:33;;;;;;;25.00;5.45;;;;;;;5.35;100.00;100484.84;5064756;28;20033;-72
2023/12/09 07:19:59;;;;;;;23.73;5.53;;;;;;;5.36;100.00;100479.41;5054693;28;20086;-72
2023/12/09 07:22:25;;;;;;;19.23;5.07;;;;;;;5.38;100.00;100480.19;5058722;28;20059;-72
2023/12/09 07:24:51;;;;;;;22.52;5.15;;;;;;;5.41;100.00;100487.16;5053251;28;20116;-73
2023/12/09 07:27:16;;;;;;;17.20;4.95;;;;;;;5.44;100.00;100494.97;5052572;28;20124;-73
2023/12/09 07:29:41;;;;;;;23.60;4.85;;;;;;;5.46;100.00;100498.41;5051710;28;20025;-73
2023/12/09 07:32:07;;;;;;;23.08;5.20;;;;;;;5.49;100.00;100498.22;5051763;28;20038;-73
2023/12/09 07:34:32;;;;;;;20.65;5.05;;;;;;;5.51;100.00;100492.81;5050654;28;20484;-73
2023/12/09 07:36:57;;;;;;;18.50;4.50;;;;;;;5.52;100.00;100487.38;5038273;28;20025;-73
2023/12/09 07:39:23;;;;;;;19.33;4.72;;;;;;;5.55;100.00;100462.34;5038275;28;20111;-73
2023/12/09 07:41:50;;;;;;;21.15;5.00;;;;;;;5.55;100.00;100463.22;5044020;28;20055;-73
2023/12/09 07:44:20;;;;;;;21.45;4.72;;;;;;;5.58;100.00;100464.84;5048694;28;20357;-73
2023/12/09 07:46:46;;;;;;;17.33;4.07;;;;;;;5.60;100.00;100470.94;5053494;28;20333;-73
2023/12/09 07:49:11;;;;;;;18.20;4.65;;;;;;;5.61;100.00;100480.66;5046637;28;20111;-73
2023/12/09 07:51:37;;;;;;;20.88;5.53;;;;;;;5.62;100.00;100474.38;5051176;28;20143;-73
2023/12/09 07:54:02;;;;;;;19.80;4.60;;;;;;;5.65;100.00;100474.22;5054413;28;20040;-73
2023/12/09 07:56:28;;;;;;;23.60;5.40;;;;;;;5.67;100.00;100460.78;5049849;28;20203;-73
2023/12/09 07:58:53;;;;;;;20.13;4.85;;;;;;;5.68;100.00;100454.47;5051359;28;20404;-73
2023/12/09 08:01:19;;;;;;;22.73;4.88;;;;;;;5.69;100.00;100446.38;5054604;28;20077;-73
2023/12/09 08:03:44;;;;;;;20.90;4.72;;;;;;;5.72;100.00;100432.03;5048413;28;20051;-72
2023/12/09 08:06:11;;;;;;;23.35;4.85;;;;;;;5.74;100.00;100433.66;5044758;28;20045;-73
2023/12/09 08:08:37;;;;;;;18.15;4.70;;;;;;;5.75;100.00;100423.84;5036134;28;20037;-73
2023/12/09 08:11:03;;;;;;;19.95;4.57;;;;;;;5.79;100.00;100436.03;5041665;28;20051;-73
2023/12/09 08:13:28;;;;;;;22.02;5.38;;;;;;;5.82;100.00;100435.84;5061295;28;20025;-73
2023/12/09 08:15:53;;;;;;;18.60;4.70;;;;;;;5.84;100.00;100431.31;5048928;28;20028;-73
2023/12/09 08:18:18;;;;;;;22.80;5.13;;;;;;;5.86;100.00;100424.06;5044210;28;20313;-73
2023/12/09 08:20:44;;;;;;;22.58;4.55;;;;;;;5.90;100.00;100435.38;5048751;28;20033;-73
2023/12/09 08:23:09;;;;;;;23.52;5.03;;;;;;;5.92;100.00;100434.34;5050900;28;20128;-73
2023/12/09 08:25:34;;;;;;;23.02;4.40;;;;;;;5.97;100.00;100427.88;5046815;28;20035;-73
2023/12/09 08:28:00;;;;;;;19.73;4.47;;;;;;;6.00;100.00;100425.06;5039862;28;20043;-73
2023/12/09 08:30:25;;;;;;;19.35;4.07;;;;;;;6.01;100.00;100424.97;5053600;28;20051;-73
2023/12/09 08:32:50;;;;;;;18.13;4.30;;;;;;;6.04;100.00;100419.44;5045607;28;20037;-73
2023/12/09 08:35:15;;;;;;;23.85;5.03;;;;;;;6.06;100.00;100422.00;5046751;28;20051;-71
2023/12/09 08:37:41;;;;;;;18.65;4.25;;;;;;;6.07;100.00;100418.41;5069117;28;20029;-72
2023/12/09 08:40:13;;;;;;;15.82;4.28;;;;;;;6.09;100.00;100416.47;5076108;28;20033;-71
2023/12/09 08:42:43;;;;;;;17.85;4.50;;;;;;;6.10;100.00;100412.88;5062985;28;20082;-71
2023/12/09 08:45:14;;;;;;;15.65;4.25;;;;;;;6.12;100.00;100405.66;5061586;28;20452;-73
2023/12/09 08:47:39;;;;;;;22.90;4.53;;;;;;;6.14;100.00;100401.06;5060397;28;20025;-72
2023/12/09 08:50:05;;;;;;;17.02;4.03;;;;;;;6.15;100.00;100410.78;5059061;28;20059;-72
2023/12/09 08:52:31;;;;;;;18.55;4.25;;;;;;;6.17;100.00;100400.03;5060150;28;20309;-72
2023/12/09 08:54:58;;;;;;;22.00;4.88;;;;;;;6.19;100.00;100398.09;5059298;28;20182;-72
2023/12/09 08:57:24;;;;;;;19.67;4.40;;;;;;;6.22;100.00;100395.25;5063632;28;20040;-73
2023/12/09 08:59:49;;;;;;;14.63;3.60;;;;;;;6.23;100.00;100384.47;5062389;28;20025;-72
2023/12/09 09:02:14;;;;;;;15.73;4.25;;;;;;;6.28;100.00;100379.72;5056775;28;20060;-72
2023/12/09 09:04:40;;;;;;;17.15;3.90;;;;;;;6.30;100.00;100382.28;5067151;28;20028;-72
2023/12/09 09:07:06;;;;;;;19.40;4.47;;;;;;;6.34;100.00;100388.28;5059973;28;20033;-72
2023/12/09 09:09:31;;;;;;;18.13;3.95;;;;;;;6.33;100.00;100370.56;5051529;28;20385;-72
2023/12/09 09:11:57;;;;;;;17.48;4.00;;;;;;;6.35;100.00;100358.81;5059524;28;20032;-73
2023/12/09 09:14:22;;;;;;;16.75;3.80;;;;;;;6.37;100.00;100345.38;5072904;28;20043;-72
2023/12/09 09:16:47;;;;;;;16.52;3.80;;;;;;;6.40;100.00;100335.38;5056896;28;20033;-72
2023/12/09 09:19:12;;;;;;;20.02;3.92;;;;;;;6.42;100.00;100328.09;5055555;28;20056;-72
2023/12/09 09:21:40;;;;;;;20.30;4.28;;;;;;;6.44;100.00;100314.66;5063396;28;20035;-72
2023/12/09 09:24:06;;;;;;;20.08;3.83;;;;;;;6.49;100.00;100307.22;5061440;28;20088;-72
2023/12/09 09:26:33;;;;;;;20.48;3.97;;;;;;;6.51;100.00;100294.63;5069724;28;20086;-73
2023/12/09 09:28:58;;;;;;;11.95;3.75;;;;;;;6.52;100.00;100285.66;5071996;28;20051;-72
2023/12/09 09:31:23;;;;;;;21.65;4.80;;;;;;;6.53;100.00;100287.38;5071327;28;20033;-73
2023/12/09 09:33:49;;;;;;;20.08;4.10;;;;;;;6.56;100.00;100288.97;5068219;28;20025;-72
2023/12/09 09:36:16;;;;;;;18.05;4.35;;;;;;;6.57;100.00;100294.22;5073683;28;20525;-72
2023/12/09 09:38:42;;;;;;;17.63;4.38;;;;;;;6.59;100.00;100292.31;5071160;28;20033;-72
2023/12/09 09:41:17;;;;;;;13.48;3.13;;;;;;;6.61;100.00;100290.38;5068027;28;20035;-72
2023/12/09 09:43:47;;;;;;;13.10;3.45;;;;;;;6.65;100.00;100288.38;5070686;28;20633;-72
2023/12/09 09:46:14;;;;;;;;;;;;;;;6.68;100.00;100274.84;5058326;28;20049;-72
2023/12/09 09:48:43;;;;;;;17.67;3.40;;;;;;;6.68;100.00;100269.50;5056910;28;19940;-72
2023/12/09 09:51:13;;;;;;;24.08;4.75;;;;;;;6.69;100.00;100271.22;5045649;28;20137;-72
2023/12/09 09:53:56;;;;;;;14.68;3.28;;;;;;;6.72;100.00;100254.09;5057785;28;20021;-72
2023/12/09 09:56:21;;;;;;;16.35;3.45;;;;;;;6.74;100.00;100244.19;5060533;28;20030;-73
2023/12/09 09:58:47;;;;;;;15.02;3.97;;;;;;;6.73;100.00;100240.66;5055153;28;20123;-73
2023/12/09 10:01:12;;;;;;;14.82;3.40;;;;;;;6.76;100.00;100242.25;5054391;28;20032;-73
2023/12/09 10:03:38;;;;;;;17.90;3.92;;;;;;;6.78;100.00;100233.19;5061436;28;20436;-73
2023/12/09 10:06:04;;;;;;;16.25;3.35;;;;;;;6.81;100.00;100226.81;5071370;28;20021;-72
2023/12/09 10:08:29;;;;;;;13.95;3.28;;;;;;;6.81;100.00;100213.44;5069593;28;20036;-72
2023/12/09 10:10:55;;;;;;;19.90;3.45;;;;;;;6.83;100.00;100199.00;5070389;28;20029;-72
2023/12/09 10:13:23;;;;;;;17.33;3.50;;;;;;;6.85;100.00;100185.53;5067968;28;20029;-72
2023/12/09 10:15:49;;;;;;;14.13;3.67;;;;;;;6.88;100.00;100184.50;5063429;28;20380;-73
2023/12/09 10:18:14;;;;;;;14.73;3.67;;;;;;;6.89;100.00;100176.38;5058447;28;20028;-73
2023/12/09 10:20:39;;;;;;;22.55;4.60;;;;;;;6.90;100.00;100158.53;5054629;28;20028;-73
2023/12/09 10:23:05;;;;;;;13.85;3.38;;;;;;;6.90;100.00;100156.72;5060003;28;20105;-73
2023/12/09 10:25:31;;;;;;;14.65;3.90;;;;;;;6.92;100.00;100145.91;5056008;28;20016;-73
2023/12/09 10:27:57;;;;;;;14.23;3.75;;;;;;;6.94;100.00;100141.31;5060075;28;20107;-73
2023/12/09 10:30:22;;;;;;;13.75;3.70;;;;;;;6.93;100.00;100124.44;5049963;28;20326;-73
2023/12/09 10:32:48;;;;;;;13.90;3.38;;;;;;;6.94;100.00;100110.13;5053731;28;20054;-73
2023/12/09 10:35:16;;;;;;;13.50;2.97;;;;;;;6.97;100.00;100107.25;5053877;28;20384;-73
2023/12/09 10:37:42;;;;;;;13.50;3.13;;;;;;;6.98;100.00;100114.31;5056212;28;20021;-73
2023/12/09 10:40:13;;;;;;;12.30;2.85;;;;;;;7.00;100.00;100111.53;5054375;28;20028;-73
2023/12/09 10:42:38;;;;;;;12.18;3.25;;;;;;;7.00;100.00;100103.50;5058163;28;20403;-73
2023/12/09 10:45:05;;;;;;;17.65;3.90;;;;;;;7.03;100.00;100081.03;5058801;28;20124;-73
2023/12/09 10:47:30;;;;;;;18.90;3.10;;;;;;;7.04;100.00;100078.25;5058482;28;20087;-73
2023/12/09 10:49:57;;;;;;;14.88;3.05;;;;;;;7.07;100.00;100061.16;5058533;28;20057;-73
2023/12/09 10:52:22;;;;;;;12.52;3.10;;;;;;;7.06;100.00;100044.28;5056927;28;20032;-73
2023/12/09 10:54:47;;;;;;;13.00;3.03;;;;;;;7.08;100.00;100038.84;5060093;28;20403;-73
2023/12/09 10:57:15;;;;;;;12.02;2.88;;;;;;;7.08;100.00;100030.81;5057323;28;20029;-73
2023/12/09 10:59:40;;;;;;;14.10;3.13;;;;;;;7.09;100.00;100016.50;5059575;28;20031;-73
2023/12/09 11:02:07;;;;;;;13.40;3.30;;;;;;;7.09;100.00;100008.50;5058498;28;20409;-73
2023/12/09 11:04:33;;;;;;;11.25;2.83;;;;;;;7.10;100.00;100005.69;5057726;28;20527;-73
2023/12/09 11:07:02;;;;;;;13.77;3.38;;;;;;;7.12;100.00;100010.94;5056205;28;20104;-73
2023/12/09 11:09:27;;;;;;;12.10;2.83;;;;;;;7.13;100.00;99988.56;5054942;28;20032;-73
2023/12/09 11:11:53;;;;;;;9.70;2.67;;;;;;;7.14;100.00;99971.59;5052234;28;20025;-73